THY5BZ LTFM-LTAJ
Flight info
| Callsign | THY5BZ |
|---|---|
| Flight time | 1h 16m |
| Altitude | 31000 |
| Route | ASMAP UT341 BAG UA17 BALAX UL605 BELSU UA17 BOYAT |
| Aircraft | B77W/H-SDE1E2E3FGHIJ2J3J4J5M1RWXY/LB1D1 |
Departure
| Time | 2026-05-01 07:32 |
|---|---|
| Airport | İstanbul Airport (LTFM) |
Arrival
| Time | 2026-05-01 08:49 |
|---|---|
| Airport | Gaziantep Oğuzeli International Airport (LTAJ) |
| Time | Latitude | Longitude | Altitude | Speed | Heading |
|---|---|---|---|---|---|
| 2026-05-01 07:23 | 41.26433 | 28.74957 | 318 ft | 0 kts | 284° |
| 2026-05-01 07:24 | 41.26433 | 28.74958 | 318 ft | 0 kts | 284° |
| 2026-05-01 07:25 | 41.26430 | 28.74976 | 318 ft | 2 kts | 271° |
| 2026-05-01 07:25 | 41.26433 | 28.75009 | 318 ft | 5 kts | 251° |
| 2026-05-01 07:25 | 41.26452 | 28.75050 | 316 ft | 5 kts | 221° |
| 2026-05-01 07:26 | 41.26479 | 28.75072 | 316 ft | 0 kts | 196° |
| 2026-05-01 07:29 | 41.26466 | 28.75067 | 316 ft | 8 kts | 194° |
| 2026-05-01 07:29 | 41.26354 | 28.75027 | 318 ft | 20 kts | 197° |
| 2026-05-01 07:29 | 41.26261 | 28.75020 | 318 ft | 8 kts | 143° |
| 2026-05-01 07:29 | 41.26245 | 28.75064 | 318 ft | 9 kts | 105° |
| 2026-05-01 07:30 | 41.26241 | 28.75163 | 318 ft | 13 kts | 90° |
| 2026-05-01 07:30 | 41.26242 | 28.75298 | 319 ft | 17 kts | 89° |
| 2026-05-01 07:30 | 41.26244 | 28.75476 | 319 ft | 22 kts | 89° |
| 2026-05-01 07:30 | 41.26251 | 28.75624 | 320 ft | 10 kts | 65° |
| 2026-05-01 07:31 | 41.26319 | 28.75665 | 320 ft | 13 kts | 4° |
| 2026-05-01 07:31 | 41.27056 | 28.75656 | 309 ft | 135 kts | 359° |
| 2026-05-01 07:32 | 41.29544 | 28.75643 | 1534 ft | 185 kts | 3° |
| 2026-05-01 07:32 | 41.30783 | 28.75846 | 2252 ft | 185 kts | 25° |
| 2026-05-01 07:33 | 41.32684 | 28.78622 | 3054 ft | 216 kts | 31° |
| 2026-05-01 07:33 | 41.34087 | 28.79381 | 3626 ft | 222 kts | 21° |
| 2026-05-01 07:33 | 41.36847 | 28.81384 | 5084 ft | 226 kts | 37° |
| 2026-05-01 07:34 | 41.37826 | 28.83069 | 5688 ft | 235 kts | 60° |
| 2026-05-01 07:34 | 41.38569 | 28.87386 | 6871 ft | 256 kts | 86° |
| 2026-05-01 07:34 | 41.38543 | 28.89787 | 7527 ft | 262 kts | 89° |
| 2026-05-01 07:35 | 41.38075 | 28.92175 | 8016 ft | 279 kts | 118° |
| 2026-05-01 07:35 | 41.36672 | 28.93996 | 8753 ft | 288 kts | 149° |
| 2026-05-01 07:35 | 41.34766 | 28.94770 | 9697 ft | 287 kts | 175° |
| 2026-05-01 07:35 | 41.32773 | 28.94802 | 10488 ft | 288 kts | 180° |
| 2026-05-01 07:36 | 41.30691 | 28.94814 | 10847 ft | 314 kts | 180° |
| 2026-05-01 07:36 | 41.28406 | 28.94840 | 11101 ft | 343 kts | 181° |
| 2026-05-01 07:36 | 41.25922 | 28.94873 | 11453 ft | 366 kts | 181° |
| 2026-05-01 07:36 | 41.23334 | 28.94816 | 12213 ft | 375 kts | 185° |
| 2026-05-01 07:37 | 41.18069 | 28.94257 | 14160 ft | 383 kts | 188° |
| 2026-05-01 07:37 | 41.15405 | 28.94041 | 14960 ft | 385 kts | 181° |
| 2026-05-01 07:37 | 41.12753 | 28.94827 | 15547 ft | 404 kts | 157° |
| 2026-05-01 07:38 | 41.10468 | 28.97073 | 16420 ft | 416 kts | 135° |
| 2026-05-01 07:38 | 41.08754 | 29.00142 | 17341 ft | 424 kts | 123° |
| 2026-05-01 07:38 | 41.06438 | 29.07524 | 18704 ft | 444 kts | 111° |
| 2026-05-01 07:39 | 41.05472 | 29.11439 | 19321 ft | 450 kts | 111° |
| 2026-05-01 07:39 | 41.04521 | 29.15403 | 20058 ft | 453 kts | 111° |
| 2026-05-01 07:39 | 41.02565 | 29.23391 | 21521 ft | 459 kts | 113° |
| 2026-05-01 07:40 | 41.01547 | 29.27415 | 22197 ft | 462 kts | 114° |
| 2026-05-01 07:40 | 41.00508 | 29.31459 | 22872 ft | 466 kts | 114° |
| 2026-05-01 07:40 | 40.99451 | 29.35530 | 23555 ft | 469 kts | 114° |
| 2026-05-01 07:40 | 40.98380 | 29.39627 | 24166 ft | 472 kts | 115° |
| 2026-05-01 07:41 | 40.97301 | 29.43743 | 24742 ft | 475 kts | 115° |
| 2026-05-01 07:41 | 40.96211 | 29.47894 | 25274 ft | 479 kts | 115° |
| 2026-05-01 07:41 | 40.94008 | 29.56271 | 26274 ft | 486 kts | 115° |
| 2026-05-01 07:42 | 40.92905 | 29.60462 | 26748 ft | 490 kts | 115° |
| 2026-05-01 07:42 | 40.91781 | 29.64726 | 27217 ft | 493 kts | 115° |
| 2026-05-01 07:42 | 40.90646 | 29.69021 | 27709 ft | 496 kts | 115° |
| 2026-05-01 07:42 | 40.89503 | 29.73342 | 28151 ft | 500 kts | 115° |
| 2026-05-01 07:43 | 40.88346 | 29.77702 | 28551 ft | 504 kts | 115° |
| 2026-05-01 07:43 | 40.87179 | 29.82092 | 28951 ft | 507 kts | 115° |
| 2026-05-01 07:43 | 40.84836 | 29.90902 | 29986 ft | 507 kts | 115° |
| 2026-05-01 07:44 | 40.82502 | 29.99649 | 30999 ft | 505 kts | 115° |
| 2026-05-01 07:44 | 40.80136 | 30.08464 | 31150 ft | 511 kts | 115° |
| 2026-05-01 07:45 | 40.77773 | 30.17256 | 31146 ft | 505 kts | 115° |
| 2026-05-01 07:45 | 40.75434 | 30.25919 | 31149 ft | 505 kts | 115° |
| 2026-05-01 07:46 | 40.73854 | 30.31747 | 31149 ft | 505 kts | 115° |
| 2026-05-01 07:47 | 40.69511 | 30.47709 | 31121 ft | 505 kts | 115° |
| 2026-05-01 07:47 | 40.67131 | 30.56418 | 31119 ft | 505 kts | 115° |
| 2026-05-01 07:48 | 40.63491 | 30.69444 | 31112 ft | 502 kts | 119° |
| 2026-05-01 07:48 | 40.60146 | 30.77407 | 31106 ft | 492 kts | 130° |
| 2026-05-01 07:49 | 40.54528 | 30.88674 | 31087 ft | 493 kts | 129° |
| 2026-05-01 07:50 | 40.50827 | 30.96264 | 31078 ft | 493 kts | 129° |
| 2026-05-01 07:50 | 40.45262 | 31.07638 | 31074 ft | 493 kts | 129° |
| 2026-05-01 07:51 | 40.41542 | 31.15211 | 31059 ft | 494 kts | 129° |
| 2026-05-01 07:52 | 40.37173 | 31.27608 | 31036 ft | 508 kts | 110° |
| 2026-05-01 07:52 | 40.35681 | 31.36697 | 31046 ft | 510 kts | 105° |
| 2026-05-01 07:53 | 40.33539 | 31.50279 | 31016 ft | 508 kts | 106° |
| 2026-05-01 07:53 | 40.32043 | 31.59399 | 31012 ft | 508 kts | 106° |
| 2026-05-01 07:55 | 40.28321 | 31.81886 | 30991 ft | 506 kts | 106° |
| 2026-05-01 07:56 | 40.24023 | 32.04104 | 30968 ft | 501 kts | 110° |
| 2026-05-01 07:57 | 40.21123 | 32.17252 | 30948 ft | 501 kts | 110° |
| 2026-05-01 07:58 | 40.17296 | 32.34710 | 30941 ft | 501 kts | 110° |
| 2026-05-01 07:59 | 40.13824 | 32.50429 | 30935 ft | 502 kts | 110° |
| 2026-05-01 08:00 | 40.07463 | 32.78019 | 30943 ft | 497 kts | 118° |
| 2026-05-01 08:01 | 40.01962 | 32.89199 | 30952 ft | 484 kts | 135° |
| 2026-05-01 08:01 | 40.00522 | 32.91415 | 30949 ft | 484 kts | 134° |
| 2026-05-01 08:02 | 39.93349 | 33.02699 | 30952 ft | 484 kts | 134° |
| 2026-05-01 08:03 | 39.86971 | 33.12819 | 30954 ft | 484 kts | 134° |
| 2026-05-01 08:03 | 39.80562 | 33.22947 | 30940 ft | 483 kts | 133° |
| 2026-05-01 08:04 | 39.65595 | 33.46466 | 30899 ft | 484 kts | 133° |
| 2026-05-01 08:05 | 39.22266 | 34.14445 | 30955 ft | 485 kts | 133° |
| 2026-05-01 08:06 | 39.15770 | 34.24485 | 30951 ft | 486 kts | 134° |
| 2026-05-01 08:07 | 39.07872 | 34.38639 | 30961 ft | 483 kts | 134° |
| 2026-05-01 08:08 | 39.01268 | 34.48407 | 30967 ft | 486 kts | 134° |
| 2026-05-01 08:09 | 38.92551 | 34.61746 | 30962 ft | 488 kts | 133° |
| 2026-05-01 08:09 | 38.88205 | 34.68434 | 30965 ft | 487 kts | 133° |
| 2026-05-01 08:10 | 38.79504 | 34.81760 | 30971 ft | 487 kts | 133° |
| 2026-05-01 08:11 | 38.70785 | 34.95047 | 30961 ft | 486 kts | 133° |
| 2026-05-01 08:12 | 38.64248 | 35.04977 | 30950 ft | 486 kts | 133° |
| 2026-05-01 08:13 | 38.57708 | 35.14881 | 30956 ft | 486 kts | 133° |
| 2026-05-01 08:13 | 38.51293 | 35.24557 | 30961 ft | 485 kts | 134° |
| 2026-05-01 08:14 | 38.46853 | 35.31066 | 30956 ft | 485 kts | 134° |
| 2026-05-01 08:14 | 38.42405 | 35.37536 | 30957 ft | 485 kts | 134° |
| 2026-05-01 08:15 | 38.35734 | 35.47255 | 30958 ft | 485 kts | 134° |
| 2026-05-01 08:16 | 38.31283 | 35.53732 | 30963 ft | 485 kts | 134° |
| 2026-05-01 08:16 | 38.26875 | 35.60134 | 30967 ft | 483 kts | 134° |
| 2026-05-01 08:17 | 38.22414 | 35.66598 | 30975 ft | 483 kts | 135° |
| 2026-05-01 08:17 | 38.17979 | 35.73017 | 30979 ft | 483 kts | 135° |
| 2026-05-01 08:18 | 38.13548 | 35.79415 | 30987 ft | 482 kts | 135° |
| 2026-05-01 08:19 | 38.04679 | 35.92114 | 31004 ft | 482 kts | 135° |
| 2026-05-01 08:19 | 38.00224 | 35.98482 | 31007 ft | 482 kts | 135° |
| 2026-05-01 08:20 | 37.95791 | 36.04808 | 31006 ft | 481 kts | 135° |
| 2026-05-01 08:20 | 37.91345 | 36.11140 | 31004 ft | 481 kts | 135° |
| 2026-05-01 08:21 | 37.86930 | 36.17415 | 31005 ft | 480 kts | 135° |
| 2026-05-01 08:21 | 37.82486 | 36.23721 | 30995 ft | 480 kts | 135° |
| 2026-05-01 08:22 | 37.78060 | 36.30033 | 31007 ft | 479 kts | 135° |
| 2026-05-01 08:22 | 37.73643 | 36.36337 | 30997 ft | 479 kts | 135° |
| 2026-05-01 08:23 | 37.69214 | 36.42636 | 30970 ft | 479 kts | 135° |
| 2026-05-01 08:23 | 37.64794 | 36.48904 | 30932 ft | 475 kts | 135° |
| 2026-05-01 08:23 | 37.62610 | 36.52002 | 30689 ft | 471 kts | 135° |
| 2026-05-01 08:24 | 37.60439 | 36.55077 | 30368 ft | 469 kts | 135° |
| 2026-05-01 08:24 | 37.58271 | 36.58144 | 29976 ft | 468 kts | 135° |
| 2026-05-01 08:24 | 37.56106 | 36.61204 | 29578 ft | 467 kts | 135° |
| 2026-05-01 08:24 | 37.53952 | 36.64246 | 29239 ft | 464 kts | 134° |
| 2026-05-01 08:25 | 37.51838 | 36.67231 | 28912 ft | 461 kts | 134° |
| 2026-05-01 08:25 | 37.49701 | 36.70245 | 28550 ft | 459 kts | 134° |
| 2026-05-01 08:25 | 37.47587 | 36.73249 | 28206 ft | 457 kts | 134° |
| 2026-05-01 08:25 | 37.45485 | 36.76252 | 27864 ft | 455 kts | 134° |
| 2026-05-01 08:26 | 37.43396 | 36.79238 | 27559 ft | 453 kts | 134° |
| 2026-05-01 08:26 | 37.41319 | 36.82203 | 27257 ft | 450 kts | 134° |
| 2026-05-01 08:26 | 37.39251 | 36.85151 | 26946 ft | 448 kts | 134° |
| 2026-05-01 08:26 | 37.37193 | 36.88080 | 26517 ft | 446 kts | 134° |
| 2026-05-01 08:27 | 37.35143 | 36.90995 | 25961 ft | 443 kts | 134° |
| 2026-05-01 08:27 | 37.33111 | 36.93880 | 25454 ft | 439 kts | 134° |
| 2026-05-01 08:27 | 37.31094 | 36.96741 | 24929 ft | 436 kts | 134° |
| 2026-05-01 08:27 | 37.29088 | 36.99585 | 24434 ft | 433 kts | 134° |
| 2026-05-01 08:28 | 37.27092 | 37.02411 | 23916 ft | 431 kts | 134° |
| 2026-05-01 08:28 | 37.25139 | 37.05183 | 23366 ft | 429 kts | 133° |
| 2026-05-01 08:28 | 37.23197 | 37.08011 | 22792 ft | 426 kts | 133° |
| 2026-05-01 08:28 | 37.21279 | 37.10840 | 22255 ft | 422 kts | 133° |
| 2026-05-01 08:29 | 37.19385 | 37.13633 | 21743 ft | 418 kts | 133° |
| 2026-05-01 08:29 | 37.17504 | 37.16399 | 21253 ft | 415 kts | 133° |
| 2026-05-01 08:29 | 37.15636 | 37.19135 | 20752 ft | 412 kts | 133° |
| 2026-05-01 08:29 | 37.14402 | 37.20938 | 20430 ft | 409 kts | 133° |
| 2026-05-01 08:30 | 37.12553 | 37.23638 | 19944 ft | 406 kts | 133° |
| 2026-05-01 08:30 | 37.10701 | 37.26290 | 19464 ft | 403 kts | 134° |
| 2026-05-01 08:30 | 37.08189 | 37.29698 | 18873 ft | 399 kts | 135° |
| 2026-05-01 08:30 | 37.06925 | 37.31391 | 18791 ft | 390 kts | 135° |
| 2026-05-01 08:31 | 37.05094 | 37.33849 | 18598 ft | 381 kts | 135° |
| 2026-05-01 08:31 | 37.03316 | 37.36249 | 18448 ft | 371 kts | 135° |
| 2026-05-01 08:31 | 37.01590 | 37.38589 | 18270 ft | 361 kts | 135° |
| 2026-05-01 08:31 | 36.99902 | 37.40876 | 18110 ft | 352 kts | 135° |
| 2026-05-01 08:32 | 36.98288 | 37.43065 | 17954 ft | 342 kts | 135° |
| 2026-05-01 08:32 | 36.96681 | 37.45184 | 17786 ft | 327 kts | 141° |
| 2026-05-01 08:32 | 36.94785 | 37.46521 | 17648 ft | 304 kts | 171° |
| 2026-05-01 08:32 | 36.92758 | 37.46497 | 17577 ft | 285 kts | 193° |
| 2026-05-01 08:33 | 36.90882 | 37.45916 | 17460 ft | 272 kts | 195° |
| 2026-05-01 08:33 | 36.89064 | 37.45322 | 17173 ft | 267 kts | 195° |
| 2026-05-01 08:33 | 36.87280 | 37.44734 | 16867 ft | 264 kts | 195° |
| 2026-05-01 08:33 | 36.85515 | 37.44152 | 16533 ft | 262 kts | 195° |
| 2026-05-01 08:34 | 36.83757 | 37.43576 | 16184 ft | 260 kts | 196° |
| 2026-05-01 08:34 | 36.82015 | 37.42996 | 15839 ft | 256 kts | 199° |
| 2026-05-01 08:34 | 36.80679 | 37.42112 | 15477 ft | 249 kts | 227° |
| 2026-05-01 08:38 | 36.80596 | 37.42008 | 15434 ft | 249 kts | 230° |
| 2026-05-01 08:39 | 36.79641 | 37.40249 | 15032 ft | 242 kts | 231° |
| 2026-05-01 08:39 | 36.78373 | 37.38932 | 14609 ft | 239 kts | 201° |
| 2026-05-01 08:39 | 36.76746 | 37.38667 | 14255 ft | 239 kts | 172° |
| 2026-05-01 08:39 | 36.75204 | 37.39505 | 13736 ft | 251 kts | 142° |
| 2026-05-01 08:40 | 36.73771 | 37.43524 | 12753 ft | 264 kts | 100° |
| 2026-05-01 08:40 | 36.73544 | 37.45804 | 12129 ft | 267 kts | 101° |
| 2026-05-01 08:40 | 36.73304 | 37.48107 | 11520 ft | 269 kts | 101° |
| 2026-05-01 08:41 | 36.73062 | 37.50425 | 10919 ft | 270 kts | 101° |
| 2026-05-01 08:41 | 36.72821 | 37.52753 | 10335 ft | 271 kts | 101° |
| 2026-05-01 08:41 | 36.72585 | 37.55088 | 9725 ft | 271 kts | 101° |
| 2026-05-01 08:41 | 36.72331 | 37.57417 | 9042 ft | 270 kts | 102° |
| 2026-05-01 08:42 | 36.72106 | 37.59699 | 8387 ft | 270 kts | 93° |
| 2026-05-01 08:42 | 36.72522 | 37.61987 | 7688 ft | 275 kts | 64° |
| 2026-05-01 08:42 | 36.73768 | 37.63781 | 7112 ft | 277 kts | 36° |
| 2026-05-01 08:42 | 36.75530 | 37.64705 | 6559 ft | 276 kts | 14° |
| 2026-05-01 08:43 | 36.77400 | 37.65196 | 5972 ft | 273 kts | 13° |
| 2026-05-01 08:43 | 36.79255 | 37.65682 | 5368 ft | 271 kts | 13° |
| 2026-05-01 08:43 | 36.81093 | 37.66157 | 4780 ft | 268 kts | 13° |
| 2026-05-01 08:43 | 36.82895 | 37.66611 | 4335 ft | 259 kts | 13° |
| 2026-05-01 08:44 | 36.84619 | 37.67041 | 4019 ft | 244 kts | 13° |
| 2026-05-01 08:44 | 36.86213 | 37.67429 | 4051 ft | 229 kts | 12° |
| 2026-05-01 08:44 | 36.87781 | 37.67830 | 4067 ft | 230 kts | 13° |
| 2026-05-01 08:44 | 36.89322 | 37.68186 | 4046 ft | 219 kts | 5° |
| 2026-05-01 08:45 | 36.90757 | 37.67808 | 3991 ft | 209 kts | 327° |
| 2026-05-01 08:45 | 36.91661 | 37.66485 | 4011 ft | 198 kts | 287° |
| 2026-05-01 08:45 | 36.91739 | 37.64839 | 4004 ft | 188 kts | 255° |
| 2026-05-01 08:45 | 36.91573 | 37.63229 | 3991 ft | 191 kts | 274° |
| 2026-05-01 08:46 | 36.91906 | 37.61648 | 4049 ft | 186 kts | 282° |
| 2026-05-01 08:46 | 36.92195 | 37.60105 | 3983 ft | 177 kts | 279° |
| 2026-05-01 08:46 | 36.92495 | 37.58626 | 3738 ft | 172 kts | 281° |
| 2026-05-01 08:46 | 36.92796 | 37.57223 | 3527 ft | 164 kts | 282° |
| 2026-05-01 08:47 | 36.93090 | 37.55841 | 3296 ft | 166 kts | 282° |
| 2026-05-01 08:47 | 36.93395 | 37.54426 | 3080 ft | 168 kts | 282° |
| 2026-05-01 08:47 | 36.93697 | 37.53021 | 2860 ft | 167 kts | 284° |
| 2026-05-01 08:47 | 36.94000 | 37.51606 | 2506 ft | 167 kts | 285° |
| 2026-05-01 08:48 | 36.94318 | 37.50211 | 2432 ft | 170 kts | 284° |
| 2026-05-01 08:48 | 36.94608 | 37.48797 | 2228 ft | 149 kts | 285° |
| 2026-05-01 08:48 | 36.94784 | 37.47979 | 2228 ft | 73 kts | 284° |
| 2026-05-01 08:48 | 36.94908 | 37.47411 | 2225 ft | 59 kts | 285° |
| 2026-05-01 08:49 | 36.94918 | 37.47155 | 2227 ft | 13 kts | 219° |
| 2026-05-01 08:49 | 36.94905 | 37.47147 | 2227 ft | 1 kts | 204° |
| 2026-05-01 08:49 | 36.94900 | 37.47144 | 2225 ft | 1 kts | 204° |
| 2026-05-01 08:49 | 36.94892 | 37.47140 | 2226 ft | 2 kts | 204° |
| 2026-05-01 08:50 | 36.94882 | 37.47134 | 2227 ft | 2 kts | 204° |
| 2026-05-01 08:50 | 36.94877 | 37.47131 | 2227 ft | 2 kts | 200° |
| 2026-05-01 08:50 | 36.94831 | 37.47117 | 2228 ft | 3 kts | 179° |
| 2026-05-01 08:50 | 36.94791 | 37.47180 | 2226 ft | 16 kts | 111° |
| 2026-05-01 08:51 | 36.94751 | 37.47353 | 2230 ft | 17 kts | 103° |
| 2026-05-01 08:51 | 36.94694 | 37.47428 | 2228 ft | 10 kts | 166° |
| 2026-05-01 08:51 | 36.94651 | 37.47493 | 2226 ft | 10 kts | 114° |
| 2026-05-01 08:51 | 36.94630 | 37.47575 | 2225 ft | 10 kts | 107° |
| 2026-05-01 08:52 | 36.94602 | 37.47653 | 2225 ft | 10 kts | 142° |
| 2026-05-01 08:52 | 36.94561 | 37.47659 | 2230 ft | 5 kts | 197° |
| 2026-05-01 08:52 | 36.94532 | 37.47646 | 2228 ft | 0 kts | 198° |
| 2026-05-01 08:52 | 36.94530 | 37.47646 | 2227 ft | 0 kts | 198° |